createdAt,value
2019-04-10T00:00:59.264Z,11.77
2019-04-10T00:03:34.456Z,11.82
2019-04-10T00:06:00.420Z,11.81
2019-04-10T00:08:30.361Z,11.84
2019-04-10T00:11:00.424Z,11.76
2019-04-10T00:13:29.716Z,11.77
2019-04-10T00:15:59.140Z,11.82
2019-04-10T00:18:28.372Z,11.87
2019-04-10T00:20:58.614Z,11.74
2019-04-10T00:23:27.987Z,11.81
2019-04-10T00:25:57.337Z,11.69
2019-04-10T00:28:27.551Z,11.69
2019-04-10T00:30:57.719Z,11.61
2019-04-10T00:33:27.292Z,11.57
2019-04-10T00:35:57.016Z,11.56
2019-04-10T00:38:26.278Z,11.55
2019-04-10T00:40:55.556Z,11.43
2019-04-10T00:43:24.789Z,11.38
2019-04-10T00:45:54.292Z,11.37
2019-04-10T00:48:24.040Z,11.35
2019-04-10T00:50:53.229Z,11.31
2019-04-10T00:53:23.242Z,11.45
2019-04-10T00:55:52.503Z,11.52
2019-04-10T00:58:22.555Z,11.68
2019-04-10T01:00:51.904Z,11.73
2019-04-10T01:03:39.988Z,11.76
2019-04-10T01:06:09.299Z,11.90
2019-04-10T01:08:38.582Z,11.84
2019-04-10T01:11:08.584Z,11.89
2019-04-10T01:13:37.923Z,11.90
2019-04-10T01:16:07.490Z,11.88
2019-04-10T01:18:37.402Z,11.88
2019-04-10T01:21:08.558Z,11.79
2019-04-10T01:23:38.061Z,11.38
2019-04-10T01:26:07.595Z,11.51
2019-04-10T01:28:36.847Z,11.47
2019-04-10T01:31:06.765Z,11.34
2019-04-10T01:33:36.856Z,11.26
2019-04-10T01:36:06.944Z,11.26
2019-04-10T01:38:36.215Z,11.25
2019-04-10T01:41:07.966Z,11.22
2019-04-10T01:43:37.202Z,11.31
2019-04-10T01:46:06.406Z,11.37
2019-04-10T01:48:36.301Z,11.34
2019-04-10T01:51:06.775Z,11.36
2019-04-10T01:53:35.914Z,11.37
2019-04-10T01:56:05.327Z,11.38
2019-04-10T01:58:34.933Z,11.33
2019-04-10T02:01:08.787Z,11.39
2019-04-10T02:03:38.354Z,11.49
2019-04-10T02:06:07.625Z,11.54
2019-04-10T02:08:36.834Z,11.54
2019-04-10T02:11:06.861Z,11.61
2019-04-10T02:13:36.049Z,11.63
2019-04-10T02:16:06.211Z,11.55
2019-04-10T02:18:35.468Z,11.43
2019-04-10T02:21:07.485Z,11.52
2019-04-10T02:23:36.740Z,11.48
2019-04-10T02:26:06.075Z,11.42
2019-04-10T02:28:36.187Z,11.51
2019-04-10T02:31:07.010Z,11.51
2019-04-10T02:33:36.389Z,11.49
2019-04-10T02:36:05.949Z,11.58
2019-04-10T02:38:50.268Z,11.41
2019-04-10T02:41:08.498Z,11.52
2019-04-10T02:43:38.027Z,11.58
2019-04-10T02:46:08.372Z,11.64
2019-04-10T02:48:39.259Z,11.79
2019-04-10T02:51:09.683Z,11.95
2019-04-10T02:53:39.469Z,12.03
2019-04-10T02:56:09.096Z,11.99
2019-04-10T02:58:38.615Z,11.99
2019-04-10T03:01:09.386Z,11.99
2019-04-10T03:03:39.929Z,12.08
2019-04-10T03:06:11.374Z,12.14
2019-04-10T03:08:55.884Z,12.18
2019-04-10T03:11:12.441Z,12.21
2019-04-10T03:13:43.013Z,12.39
2019-04-10T03:16:13.862Z,12.43
2019-04-10T03:18:43.256Z,12.46
2019-04-10T03:21:13.637Z,12.52
2019-04-10T03:23:42.902Z,12.58
2019-04-10T03:26:13.109Z,12.58
2019-04-10T03:28:43.075Z,12.62
2019-04-10T03:31:13.202Z,12.62
2019-04-10T03:33:51.764Z,12.66
2019-04-10T03:36:19.158Z,12.61
2019-04-10T03:38:57.737Z,12.62
2019-04-10T03:41:19.885Z,12.62
2019-04-10T03:43:50.059Z,12.53
2019-04-10T03:46:19.538Z,12.48
2019-04-10T03:48:49.438Z,12.39
2019-04-10T03:51:18.691Z,12.31
2019-04-10T03:53:48.688Z,12.31
2019-04-10T03:56:18.057Z,12.32
2019-04-10T03:58:47.547Z,12.28
2019-04-10T04:01:16.778Z,12.18
2019-04-10T04:03:46.031Z,12.14
2019-04-10T04:06:15.494Z,12.23
2019-04-10T04:08:45.826Z,12.28
2019-04-10T04:11:15.601Z,12.31
2019-04-10T04:13:45.714Z,12.36
2019-04-10T04:16:15.111Z,12.31
2019-04-10T04:18:44.381Z,12.31
2019-04-10T04:21:13.766Z,12.34
2019-04-10T04:23:43.021Z,12.34
2019-04-10T04:26:12.687Z,12.37
2019-04-10T04:28:42.249Z,12.36
2019-04-10T04:31:11.456Z,12.40
2019-04-10T04:33:41.115Z,12.42
2019-04-10T04:36:10.410Z,12.40
2019-04-10T04:38:40.987Z,12.41
2019-04-10T04:41:11.116Z,12.42
2019-04-10T04:43:43.117Z,12.43
2019-04-10T04:46:12.035Z,12.41
2019-04-10T04:48:41.437Z,12.41
2019-04-10T04:51:11.241Z,12.38
2019-04-10T04:53:40.471Z,12.36
2019-04-10T04:56:09.733Z,12.36
2019-04-10T04:58:39.289Z,12.40
2019-04-10T05:01:08.545Z,12.40
2019-04-10T05:03:38.028Z,12.40
2019-04-10T05:06:08.059Z,12.32
2019-04-10T05:08:37.840Z,12.34
2019-04-10T05:11:07.245Z,12.31
2019-04-10T05:13:36.467Z,12.35
2019-04-10T05:16:06.162Z,12.30
2019-04-10T05:18:35.685Z,12.32
2019-04-10T05:21:05.189Z,12.31
2019-04-10T05:23:35.103Z,12.36
2019-04-10T05:26:04.654Z,12.38
2019-04-10T05:28:33.861Z,12.37
2019-04-10T05:31:03.200Z,12.38
2019-04-10T05:33:33.193Z,12.39
2019-04-10T05:36:02.545Z,12.40
2019-04-10T05:38:31.788Z,12.30
2019-04-10T05:41:01.376Z,12.27
2019-04-10T05:43:30.721Z,12.36
2019-04-10T05:45:59.988Z,12.38
2019-04-10T05:48:29.329Z,12.40
2019-04-10T05:51:02.798Z,12.34
2019-04-10T05:53:29.793Z,12.38
2019-04-10T05:55:59.315Z,12.44
2019-04-10T05:58:29.367Z,12.49
2019-04-10T06:01:01.037Z,12.55
2019-04-10T06:03:30.554Z,12.58
2019-04-10T06:06:01.128Z,12.62
2019-04-10T06:08:31.157Z,12.69
2019-04-10T06:11:00.582Z,12.75
2019-04-10T06:13:30.584Z,12.76
2019-04-10T06:16:01.452Z,12.73
2019-04-10T06:18:31.398Z,12.82
2019-04-10T06:21:00.897Z,12.81
2019-04-10T06:23:30.193Z,12.81
2019-04-10T06:26:00.533Z,12.83
2019-04-10T06:28:31.019Z,12.79
2019-04-10T06:31:00.674Z,12.81
2019-04-10T06:33:30.004Z,12.80
2019-04-10T06:35:59.212Z,12.79
2019-04-10T06:38:28.766Z,12.75
2019-04-10T06:40:57.938Z,12.81
2019-04-10T06:43:27.185Z,12.84
2019-04-10T06:45:56.374Z,12.88
2019-04-10T06:48:25.962Z,12.82
2019-04-10T06:50:55.667Z,12.91
2019-04-10T06:53:25.227Z,12.89
2019-04-10T06:55:54.565Z,12.90
2019-04-10T06:58:23.843Z,12.93
2019-04-10T07:00:54.904Z,13.01
2019-04-10T07:03:28.926Z,13.10
2019-04-10T07:06:06.246Z,13.00
2019-04-10T07:08:27.524Z,13.09
2019-04-10T07:11:05.154Z,12.94
2019-04-10T07:13:28.196Z,12.91
2019-04-10T07:15:58.535Z,12.96
2019-04-10T07:18:28.391Z,12.90
2019-04-10T07:21:00.980Z,12.87
2019-04-10T07:23:30.793Z,12.89
2019-04-10T07:26:00.008Z,12.93
2019-04-10T07:28:29.864Z,12.88
2019-04-10T07:31:04.672Z,12.91
2019-04-10T07:33:30.849Z,12.92
2019-04-10T07:36:04.274Z,12.98
2019-04-10T07:38:31.173Z,13.06
2019-04-10T07:41:00.383Z,13.05
2019-04-10T07:43:30.647Z,13.12
2019-04-10T07:45:59.903Z,13.19
2019-04-10T07:48:29.434Z,13.23
2019-04-10T07:50:58.756Z,13.26
2019-04-10T07:53:28.239Z,13.31
2019-04-10T07:56:05.301Z,13.37
2019-04-10T07:58:29.201Z,13.46
2019-04-10T08:00:58.874Z,13.46
2019-04-10T08:03:28.804Z,13.46
2019-04-10T08:05:58.468Z,13.47
2019-04-10T08:08:27.899Z,13.47
2019-04-10T08:10:57.473Z,13.47
2019-04-10T08:13:26.965Z,13.44
2019-04-10T08:15:56.405Z,13.37
2019-04-10T08:18:25.637Z,13.31
2019-04-10T08:20:55.187Z,13.20
2019-04-10T08:23:24.445Z,13.21
2019-04-10T08:25:53.813Z,13.21
2019-04-10T08:28:24.077Z,13.23
2019-04-10T08:30:54.652Z,13.21
2019-04-10T08:33:23.952Z,13.18
2019-04-10T08:35:53.184Z,13.01
2019-04-10T08:38:22.458Z,13.02
2019-04-10T08:40:52.385Z,13.08
2019-04-10T08:43:22.407Z,13.02
2019-04-10T08:45:53.557Z,13.02
2019-04-10T08:48:22.680Z,12.97
2019-04-10T08:50:52.445Z,13.11
2019-04-10T08:53:22.237Z,13.17
2019-04-10T08:55:52.513Z,13.22
2019-04-10T08:58:22.880Z,13.27
2019-04-10T09:00:53.022Z,13.33
2019-04-10T09:03:24.545Z,13.45
2019-04-10T09:05:53.861Z,13.61
2019-04-10T09:08:24.518Z,13.70
2019-04-10T09:10:54.606Z,13.77
2019-04-10T09:13:24.307Z,13.86
2019-04-10T09:15:54.112Z,13.92
2019-04-10T09:18:23.297Z,13.86
2019-04-10T09:20:53.112Z,13.88
2019-04-10T09:23:31.997Z,13.92
2019-04-10T09:25:53.373Z,13.93
2019-04-10T09:28:22.554Z,13.61
2019-04-10T09:30:51.816Z,13.48
2019-04-10T09:33:24.926Z,13.61
2019-04-10T09:35:52.980Z,13.68
2019-04-10T09:38:22.962Z,13.74
2019-04-10T09:40:53.320Z,13.81
2019-04-10T09:43:23.134Z,13.77
2019-04-10T09:45:53.607Z,13.73
2019-04-10T09:48:22.814Z,13.83
2019-04-10T09:50:52.641Z,13.82
2019-04-10T09:53:21.880Z,13.58
2019-04-10T09:55:52.346Z,13.42
2019-04-10T09:58:21.916Z,13.23
2019-04-10T10:00:52.248Z,13.08
2019-04-10T10:03:21.483Z,13.02
2019-04-10T10:05:51.040Z,13.04
2019-04-10T10:08:20.482Z,13.13
2019-04-10T10:10:50.272Z,13.16
2019-04-10T10:13:19.496Z,13.27
2019-04-10T10:15:49.477Z,13.26
2019-04-10T10:18:19.318Z,13.30
2019-04-10T10:20:48.614Z,13.37
2019-04-10T10:23:18.043Z,13.51
2019-04-10T10:25:47.769Z,13.57
2019-04-10T10:28:17.037Z,13.69
2019-04-10T10:30:47.368Z,13.77
2019-04-10T10:33:17.464Z,13.70
2019-04-10T10:35:47.459Z,13.68
2019-04-10T10:38:16.950Z,13.64
2019-04-10T10:40:46.654Z,13.52
2019-04-10T10:43:16.209Z,13.57
2019-04-10T10:45:46.899Z,13.73
2019-04-10T10:48:16.248Z,13.93
2019-04-10T10:50:45.725Z,14.09
2019-04-10T10:53:14.946Z,14.19
2019-04-10T10:55:44.161Z,14.28
2019-04-10T10:58:13.416Z,14.30
2019-04-10T11:00:43.156Z,14.30
2019-04-10T11:03:12.464Z,14.34
2019-04-10T11:05:42.309Z,14.34
2019-04-10T11:08:11.711Z,14.31
2019-04-10T11:10:41.382Z,14.33
2019-04-10T11:13:10.702Z,14.33
2019-04-10T11:15:42.724Z,14.25
2019-04-10T11:18:10.947Z,14.19
2019-04-10T11:20:40.212Z,14.17
2019-04-10T11:23:09.599Z,14.16
2019-04-10T11:25:40.405Z,14.18
2019-04-10T11:28:09.807Z,14.17
2019-04-10T11:30:39.050Z,14.14
2019-04-10T11:33:08.689Z,14.18
2019-04-10T11:35:39.520Z,14.15
2019-04-10T11:38:08.942Z,14.15
2019-04-10T11:40:38.929Z,14.17
2019-04-10T11:43:09.965Z,14.08
2019-04-10T11:45:43.594Z,14.15
2019-04-10T11:48:12.707Z,14.10
2019-04-10T11:50:43.909Z,14.09
2019-04-10T11:53:14.459Z,14.10
2019-04-10T11:55:49.506Z,14.10
2019-04-10T11:58:17.605Z,14.10
2019-04-10T12:00:51.219Z,14.16
2019-04-10T12:03:18.184Z,14.17
2019-04-10T12:05:49.117Z,14.15
2019-04-10T12:08:46.413Z,14.22
2019-04-10T12:11:05.155Z,14.19
2019-04-10T12:13:21.992Z,14.22
2019-04-10T12:15:51.210Z,14.17
2019-04-10T12:18:20.501Z,14.20
2019-04-10T12:20:49.724Z,14.29
2019-04-10T12:23:18.999Z,14.23
2019-04-10T12:25:49.273Z,14.33
2019-04-10T12:28:18.555Z,14.34
2019-04-10T12:30:48.191Z,14.26
2019-04-10T12:33:17.476Z,14.23
2019-04-10T12:35:47.763Z,14.24
2019-04-10T12:38:17.141Z,14.25
2019-04-10T12:40:46.767Z,14.33
2019-04-10T12:43:16.742Z,14.24
2019-04-10T12:45:46.545Z,14.32
2019-04-10T12:48:16.711Z,14.38
2019-04-10T12:50:45.969Z,14.39
2019-04-10T12:53:15.621Z,14.47
2019-04-10T12:55:45.859Z,14.51
2019-04-10T12:58:17.586Z,14.52
2019-04-10T13:00:46.137Z,14.57
2019-04-10T13:03:16.663Z,14.53
2019-04-10T13:05:46.173Z,14.49
2019-04-10T13:08:21.869Z,14.48
2019-04-10T13:10:47.642Z,14.42
2019-04-10T13:13:17.884Z,14.33
2019-04-10T13:15:47.685Z,14.35
2019-04-10T13:18:17.066Z,14.33
2019-04-10T13:20:46.993Z,14.37
2019-04-10T13:23:17.796Z,14.39
2019-04-10T13:25:55.528Z,14.41
2019-04-10T13:28:19.198Z,14.42
2019-04-10T13:30:53.162Z,14.40
2019-04-10T13:33:20.507Z,14.39
2019-04-10T13:35:49.782Z,14.32
2019-04-10T13:38:27.643Z,14.24
2019-04-10T13:40:50.218Z,14.26
2019-04-10T13:43:20.012Z,14.30
2019-04-10T13:45:49.292Z,14.30
2019-04-10T13:48:18.606Z,14.19
2019-04-10T13:50:48.704Z,14.20
2019-04-10T13:53:19.354Z,14.25
2019-04-10T13:55:48.703Z,14.27
2019-04-10T13:58:17.930Z,14.26
2019-04-10T14:00:47.182Z,14.19
2019-04-10T14:03:16.739Z,14.18
2019-04-10T14:05:46.637Z,14.21
2019-04-10T14:08:17.214Z,14.13
2019-04-10T14:10:46.836Z,14.21
2019-04-10T14:13:16.264Z,14.19
2019-04-10T14:15:46.371Z,14.18
2019-04-10T14:18:16.644Z,14.15
2019-04-10T14:20:46.010Z,14.16
2019-04-10T14:23:28.922Z,14.23
2019-04-10T14:26:17.191Z,14.29
2019-04-10T14:28:47.148Z,14.36
2019-04-10T14:31:32.102Z,14.33
2019-04-10T14:34:02.197Z,14.33
2019-04-10T14:36:32.961Z,14.35
2019-04-10T14:39:10.100Z,14.42
2019-04-10T14:41:33.767Z,14.44
2019-04-10T14:44:04.076Z,14.46
2019-04-10T14:46:33.716Z,14.47
2019-04-10T14:49:03.380Z,14.46
2019-04-10T14:51:32.894Z,14.45
2019-04-10T14:54:02.175Z,14.39
2019-04-10T14:56:32.404Z,14.37
2019-04-10T14:59:02.074Z,14.36
2019-04-10T15:01:31.536Z,14.37
2019-04-10T15:04:00.784Z,14.34
2019-04-10T15:06:31.123Z,14.31
2019-04-10T15:09:00.881Z,14.36
2019-04-10T15:11:30.864Z,14.38
2019-04-10T15:14:01.310Z,14.38
2019-04-10T15:16:31.476Z,14.38
2019-04-10T15:19:01.131Z,14.37
2019-04-10T15:21:31.207Z,14.38
2019-04-10T15:24:01.389Z,14.39
2019-04-10T15:26:30.823Z,14.40
2019-04-10T15:29:00.323Z,14.36
2019-04-10T15:31:31.261Z,14.31
2019-04-10T15:34:01.619Z,14.31
2019-04-10T15:36:31.785Z,14.27
2019-04-10T15:39:02.238Z,14.21
2019-04-10T15:41:32.878Z,14.20
2019-04-10T15:44:05.705Z,14.26
2019-04-10T15:46:35.475Z,14.25
2019-04-10T15:49:05.420Z,14.24
2019-04-10T15:51:39.320Z,14.26
2019-04-10T15:54:11.772Z,14.30
2019-04-10T15:56:42.254Z,14.24
2019-04-10T15:59:12.169Z,14.26
2019-04-10T16:01:41.486Z,14.20
2019-04-10T16:04:11.588Z,14.21
2019-04-10T16:06:41.789Z,14.22
2019-04-10T16:09:16.940Z,14.16
2019-04-10T16:12:00.475Z,14.13
2019-04-10T16:14:32.074Z,14.18
2019-04-10T16:17:23.874Z,14.18
2019-04-10T16:20:15.558Z,14.13
2019-04-10T16:23:04.577Z,14.10
2019-04-10T16:26:04.931Z,14.08
2019-04-10T16:28:37.576Z,14.07
2019-04-10T16:31:09.222Z,14.13
2019-04-10T16:33:41.298Z,14.16
2019-04-10T16:36:12.860Z,14.14
2019-04-10T16:38:44.963Z,14.11
2019-04-10T16:41:41.875Z,14.11
2019-04-10T16:44:11.449Z,14.13
2019-04-10T16:46:44.349Z,14.08
2019-04-10T16:49:15.307Z,14.04
2019-04-10T16:51:45.524Z,14.01
2019-04-10T17:08:17.488Z,13.95
2019-04-10T17:10:48.289Z,14.03
2019-04-10T17:13:19.791Z,13.92
2019-04-10T17:15:51.790Z,13.94
2019-04-10T17:18:23.334Z,13.91
2019-04-10T17:21:00.671Z,13.91
2019-04-10T17:23:53.791Z,13.92
2019-04-10T17:34:25.065Z,13.96
2019-04-10T17:36:57.092Z,13.93
2019-04-10T17:39:27.485Z,13.84
2019-04-10T17:47:17.056Z,13.69
2019-04-10T17:50:22.361Z,13.70
2019-04-10T17:52:56.683Z,13.67
2019-04-10T17:55:33.652Z,13.63
2019-04-10T17:58:10.120Z,13.56
2019-04-10T18:00:47.254Z,13.47
2019-04-10T18:03:23.499Z,13.37
2019-04-10T18:05:55.201Z,13.29
2019-04-10T18:08:34.647Z,13.25
2019-04-10T18:11:35.925Z,13.22
2019-04-10T18:39:24.080Z,13.27
2019-04-10T18:42:15.594Z,13.26
2019-04-10T18:44:51.329Z,13.32
2019-04-10T18:47:25.407Z,13.24
2019-04-10T18:50:00.913Z,13.28
2019-04-10T18:52:40.504Z,13.33
2019-04-10T18:55:20.391Z,13.29
2019-04-10T18:57:52.845Z,13.32
2019-04-10T19:00:52.018Z,13.27
2019-04-10T19:03:46.267Z,13.25
2019-04-10T19:06:14.836Z,13.24
2019-04-10T19:09:00.072Z,13.21
2019-04-10T19:11:29.110Z,13.19
2019-04-10T19:14:01.645Z,13.22
2019-04-10T19:16:33.216Z,13.23
2019-04-10T19:33:29.709Z,13.05
2019-04-10T20:19:52.613Z,12.97
2019-04-10T21:28:45.758Z,12.59
2019-04-10T21:44:09.724Z,12.61
2019-04-10T21:46:44.434Z,12.60
2019-04-10T21:49:26.163Z,12.61
2019-04-10T21:52:12.327Z,12.62
2019-04-10T21:54:49.593Z,12.59
2019-04-10T21:57:26.379Z,12.65
2019-04-10T22:04:12.087Z,12.63
2019-04-10T22:06:55.792Z,12.60
2019-04-10T22:10:19.640Z,12.62
2019-04-10T22:12:51.014Z,12.57
2019-04-10T22:15:30.958Z,12.53
2019-04-10T22:18:00.866Z,12.49
2019-04-10T22:20:30.416Z,12.49
2019-04-10T22:22:59.855Z,12.48
2019-04-10T22:25:29.844Z,12.39
2019-04-10T22:28:00.534Z,12.47
2019-04-10T22:30:30.422Z,12.49
2019-04-10T22:33:00.061Z,12.49
2019-04-10T22:35:29.482Z,12.46
2019-04-10T22:37:58.921Z,12.45
2019-04-10T22:40:29.210Z,12.42
2019-04-10T22:42:59.552Z,12.44
2019-04-10T22:45:32.440Z,12.40
2019-04-10T22:48:04.549Z,12.37
2019-04-10T22:50:36.487Z,12.41
2019-04-10T22:53:07.149Z,12.44
2019-04-10T22:55:38.901Z,12.43
2019-04-10T22:58:10.903Z,12.43
2019-04-10T23:00:43.804Z,12.43
2019-04-10T23:03:14.493Z,12.40
2019-04-10T23:05:46.871Z,12.43
2019-04-10T23:08:20.145Z,12.39
2019-04-10T23:10:51.190Z,12.42
2019-04-10T23:16:56.716Z,12.40
2019-04-10T23:19:25.952Z,12.42
2019-04-10T23:21:55.301Z,12.40
2019-04-10T23:24:24.510Z,12.44
2019-04-10T23:31:31.994Z,12.38
2019-04-10T23:34:04.089Z,12.29
2019-04-10T23:36:34.089Z,12.33
2019-04-10T23:39:04.013Z,12.32
2019-04-10T23:41:34.103Z,12.31
2019-04-10T23:44:04.110Z,12.22
2019-04-10T23:58:27.104Z,12.22
